Time;durP1;ratioP1;P1;durP2;ratioP2;P2;SDS_P1;SDS_P2;PMS_P1;PMS_P2;Temp;Humidity;BMP_temperature;BMP_pressure;BME280_temperature;BME280_humidity;BME280_pressure;Samples;Min_cycle;Max_cycle;Signal;HPM_P1;HPM_P2
2022/07/05 00:01:19;;;;;;;3.28;2.78;;;;;;;23.00;58.73;99514.78;5049239;28;20228;-56
2022/07/05 00:03:46;;;;;;;3.22;2.78;;;;;;;23.13;58.52;99520.78;5049253;28;20581;-55
2022/07/05 00:06:13;;;;;;;7.22;2.70;;;;;;;23.11;58.42;99520.91;5049466;28;20197;-55
2022/07/05 00:08:40;;;;;;;3.45;3.20;;;;;;;23.11;58.40;99517.41;5049233;28;20201;-55
2022/07/05 00:11:07;;;;;;;3.80;2.90;;;;;;;23.10;58.63;99523.66;5049169;28;20283;-55
2022/07/05 00:13:34;;;;;;;3.90;3.05;;;;;;;23.06;58.72;99516.94;5049555;28;20201;-55
2022/07/05 00:16:01;;;;;;;3.03;2.83;;;;;;;23.09;58.84;99520.19;5048236;28;20595;-55
2022/07/05 00:18:29;;;;;;;4.97;3.20;;;;;;;23.05;59.03;99524.03;5049042;28;20201;-55
2022/07/05 00:20:56;;;;;;;4.22;3.10;;;;;;;23.12;58.87;99527.03;5049160;28;20234;-56
2022/07/05 00:23:23;;;;;;;7.63;3.42;;;;;;;23.09;58.92;99522.81;5049204;28;20280;-55
2022/07/05 00:25:50;;;;;;;6.57;3.50;;;;;;;23.01;59.66;99519.13;5049224;28;20599;-55
2022/07/05 00:28:17;;;;;;;3.97;3.53;;;;;;;22.99;59.59;99518.41;5049232;28;20247;-53
2022/07/05 00:30:44;;;;;;;3.63;3.33;;;;;;;22.96;59.40;99505.41;5049412;28;20192;-53
2022/07/05 00:33:11;;;;;;;3.15;2.92;;;;;;;23.00;59.51;99512.13;5049015;28;20295;-54
2022/07/05 00:35:39;;;;;;;6.10;3.42;;;;;;;23.10;59.39;99513.94;5048892;28;20201;-54
2022/07/05 00:38:06;;;;;;;3.78;3.47;;;;;;;23.08;59.50;99507.06;5048802;28;20239;-54
2022/07/05 00:40:33;;;;;;;4.13;3.83;;;;;;;23.02;59.95;99489.03;5049322;28;20196;-54
2022/07/05 00:43:00;;;;;;;4.32;3.40;;;;;;;22.95;60.16;99493.13;5048939;28;20205;-53
2022/07/05 00:45:27;;;;;;;4.15;3.75;;;;;;;22.90;60.37;99484.72;5050890;28;20726;-54
2022/07/05 00:47:54;;;;;;;6.45;3.75;;;;;;;22.84;60.74;99486.03;5052878;28;20196;-52
2022/07/05 00:50:21;;;;;;;5.00;3.35;;;;;;;22.77;61.07;99487.50;5052407;28;20211;-55
2022/07/05 00:52:49;;;;;;;3.53;3.25;;;;;;;22.77;61.16;99490.16;5052486;28;20236;-55
2022/07/05 00:55:17;;;;;;;3.67;3.35;;;;;;;22.71;61.65;99480.84;5052415;28;20211;-54
2022/07/05 00:57:44;;;;;;;3.85;3.35;;;;;;;22.72;61.41;99471.94;5052364;28;20201;-54
2022/07/05 01:00:12;;;;;;;4.05;3.65;;;;;;;22.71;61.73;99464.97;5052178;28;20287;-54
2022/07/05 01:02:39;;;;;;;4.50;3.92;;;;;;;22.68;61.92;99470.53;5052527;28;20220;-55
2022/07/05 01:05:07;;;;;;;4.22;3.92;;;;;;;22.71;62.02;99477.34;5052315;28;20201;-54
2022/07/05 01:07:36;;;;;;;3.70;3.42;;;;;;;22.70;62.14;99470.38;5052297;28;20207;-55
2022/07/05 01:10:05;;;;;;;4.00;3.33;;;;;;;22.77;62.05;99475.13;5052197;28;20293;-54
2022/07/05 01:12:32;;;;;;;3.58;3.30;;;;;;;22.78;61.67;99470.66;5052116;28;20197;-54
2022/07/05 01:14:59;;;;;;;6.07;3.38;;;;;;;22.87;62.07;99471.72;5052062;28;20224;-54
2022/07/05 01:17:26;;;;;;;3.33;3.13;;;;;;;22.85;62.18;99466.56;5052083;28;20201;-54
2022/07/05 01:19:54;;;;;;;5.43;3.38;;;;;;;22.84;62.65;99464.88;5052101;28;20665;-54
2022/07/05 01:22:24;;;;;;;4.22;3.08;;;;;;;22.84;62.31;99456.94;5051880;28;20220;-55
2022/07/05 01:24:53;;;;;;;3.63;3.20;;;;;;;22.80;62.74;99460.78;5051742;28;20203;-56
2022/07/05 01:27:21;;;;;;;4.10;2.80;;;;;;;22.69;62.94;99456.31;5051923;28;20201;-56
2022/07/05 01:29:48;;;;;;;7.32;2.97;;;;;;;22.72;63.07;99458.72;5052074;28;20196;-56
2022/07/05 01:32:15;;;;;;;4.65;3.45;;;;;;;22.77;62.94;99453.09;5051842;28;20197;-56
2022/07/05 01:34:42;;;;;;;3.92;3.13;;;;;;;22.78;62.88;99457.44;5051788;28;20673;-55
2022/07/05 01:37:11;;;;;;;4.78;3.47;;;;;;;22.91;62.62;99452.00;5051662;28;20327;-55
2022/07/05 01:39:38;;;;;;;3.38;3.17;;;;;;;22.89;62.33;99453.94;5051651;28;20201;-54
2022/07/05 01:42:07;;;;;;;4.30;3.30;;;;;;;22.77;63.43;99458.41;5051386;28;20235;-55
2022/07/05 01:44:34;;;;;;;4.97;3.53;;;;;;;22.71;63.30;99453.53;5051601;28;20207;-55
2022/07/05 01:47:06;;;;;;;5.30;3.47;;;;;;;22.68;63.62;99453.81;5051449;28;20258;-55
2022/07/05 01:49:41;;;;;;;4.55;3.33;;;;;;;22.72;63.71;99449.94;5051473;28;20207;-55
2022/07/05 01:52:11;;;;;;;5.22;3.00;;;;;;;22.82;63.55;99453.56;5051220;28;20193;-55
2022/07/05 01:54:38;;;;;;;6.00;3.30;;;;;;;22.75;63.90;99458.50;5051758;28;20687;-55
2022/07/05 01:57:08;;;;;;;5.60;3.55;;;;;;;22.73;63.42;99462.22;5051309;28;20590;-55
2022/07/05 01:59:36;;;;;;;4.75;3.45;;;;;;;22.78;63.01;99470.66;5051301;28;20212;-55
2022/07/05 02:02:03;;;;;;;5.13;3.65;;;;;;;22.73;63.66;99470.16;5051040;28;20223;-56
2022/07/05 02:04:31;;;;;;;9.20;3.55;;;;;;;22.73;63.71;99462.22;5051217;28;20717;-53
2022/07/05 02:06:58;;;;;;;3.28;3.08;;;;;;;22.73;63.60;99451.63;5051341;28;20189;-53
2022/07/05 02:09:25;;;;;;;3.78;3.58;;;;;;;22.52;64.57;99448.03;5051233;28;20209;-54
2022/07/05 02:11:52;;;;;;;5.65;3.78;;;;;;;22.42;65.10;99454.06;5050934;28;20287;-55
2022/07/05 02:14:20;;;;;;;4.45;2.83;;;;;;;22.43;65.84;99471.63;5051003;28;20196;-55
2022/07/05 02:16:48;;;;;;;5.40;3.35;;;;;;;22.34;66.56;99477.63;5050866;28;20200;-54
2022/07/05 02:19:15;;;;;;;4.13;3.38;;;;;;;22.27;66.81;99483.50;5050929;28;20207;-54
2022/07/05 02:21:42;;;;;;;6.22;3.30;;;;;;;22.31;64.65;99485.78;5051139;28;20596;-54
2022/07/05 02:24:09;;;;;;;13.18;3.90;;;;;;;22.26;64.15;99480.00;5051172;28;20236;-54
2022/07/05 02:26:36;;;;;;;3.80;3.50;;;;;;;22.18;65.42;99478.91;5050857;28;20192;-53
2022/07/05 02:29:04;;;;;;;4.95;4.43;;;;;;;22.14;65.54;99478.31;5050677;28;20196;-53
2022/07/05 02:31:33;;;;;;;4.00;3.70;;;;;;;22.03;65.58;99465.91;5050563;28;20224;-53
2022/07/05 02:34:00;;;;;;;4.68;4.05;;;;;;;22.13;65.63;99478.41;5050724;28;20567;-54
2022/07/05 02:36:27;;;;;;;5.47;4.35;;;;;;;22.09;65.24;99478.69;5051476;28;20200;-54
2022/07/05 02:38:54;;;;;;;5.20;4.00;;;;;;;21.98;64.70;99475.13;5058602;28;20682;-54
2022/07/05 02:41:21;;;;;;;3.90;3.60;;;;;;;22.08;64.59;99484.06;5059463;28;20609;-54
2022/07/05 02:43:48;;;;;;;4.25;3.85;;;;;;;22.06;64.40;99483.34;5060784;28;20225;-54
2022/07/05 02:46:15;;;;;;;6.35;4.03;;;;;;;22.01;64.63;99486.31;5059512;28;20682;-54
2022/07/05 02:48:44;;;;;;;4.93;3.88;;;;;;;21.92;64.76;99491.44;5059691;28;20747;-54
2022/07/05 02:51:11;;;;;;;4.32;3.92;;;;;;;21.86;65.00;99491.94;5057879;28;20374;-54
2022/07/05 02:53:37;;;;;;;4.32;3.47;;;;;;;21.92;64.87;99497.56;5059092;28;20200;-55
2022/07/05 02:56:05;;;;;;;8.27;4.00;;;;;;;21.94;64.70;99490.38;5060199;28;20196;-54
2022/07/05 02:58:32;;;;;;;8.40;4.18;;;;;;;22.04;64.64;99490.53;5057377;28;20721;-54
2022/07/05 03:00:59;;;;;;;5.57;3.80;;;;;;;22.07;64.07;99485.88;5052415;28;20210;-54
2022/07/05 03:03:25;;;;;;;4.68;4.28;;;;;;;21.95;64.82;99485.94;5054343;28;20198;-54
2022/07/05 03:05:54;;;;;;;12.02;4.72;;;;;;;21.91;65.15;99495.03;5053924;28;20205;-54
2022/07/05 03:08:21;;;;;;;6.60;4.50;;;;;;;21.86;64.80;99497.22;5053597;28;20626;-56
2022/07/05 03:10:48;;;;;;;10.18;4.55;;;;;;;21.95;64.54;99507.91;5068538;28;20286;-56
2022/07/05 03:13:15;;;;;;;8.00;4.30;;;;;;;22.06;64.33;99502.69;5046096;28;20220;-55
2022/07/05 03:15:42;;;;;;;4.18;3.88;;;;;;;21.96;64.71;99503.47;5057243;28;20219;-55
2022/07/05 03:18:10;;;;;;;4.50;4.20;;;;;;;22.00;64.60;99499.69;5058281;28;20235;-55
2022/07/05 03:20:37;;;;;;;6.03;4.15;;;;;;;21.94;64.94;99495.66;5059989;28;20232;-56
2022/07/05 03:23:05;;;;;;;4.18;3.95;;;;;;;21.96;65.14;99499.03;5045211;28;20217;-54
2022/07/05 03:25:32;;;;;;;7.60;4.80;;;;;;;21.86;65.54;99500.69;5047117;28;20239;-56
2022/07/05 03:27:59;;;;;;;8.40;4.85;;;;;;;21.87;65.62;99498.91;5051216;28;20228;-53
2022/07/05 03:30:26;;;;;;;6.07;5.05;;;;;;;21.95;65.11;99496.50;5069392;28;20225;-55
2022/07/05 03:32:53;;;;;;;10.38;4.57;;;;;;;21.90;65.52;99490.72;5069360;28;20216;-56
2022/07/05 03:35:20;;;;;;;4.93;4.50;;;;;;;21.99;65.16;99490.06;5063333;28;20223;-56
2022/07/05 03:37:47;;;;;;;4.95;4.45;;;;;;;21.97;65.26;99495.44;5065165;28;20238;-56
2022/07/05 03:40:15;;;;;;;6.25;4.28;;;;;;;21.96;65.44;99480.53;5069090;28;20276;-56
2022/07/05 03:42:42;;;;;;;9.68;4.40;;;;;;;22.05;65.66;99484.31;5028287;28;20217;-56
2022/07/05 03:45:11;;;;;;;5.88;4.82;;;;;;;22.28;65.13;99482.53;5031444;28;20597;-56
2022/07/05 03:47:37;;;;;;;5.40;4.88;;;;;;;22.43;65.34;99484.00;5056523;28;20204;-55
2022/07/05 03:50:05;;;;;;;4.47;3.90;;;;;;;22.56;65.26;99475.94;5057685;28;20287;-55
2022/07/05 03:52:32;;;;;;;9.95;4.93;;;;;;;22.60;65.40;99485.31;5057948;28;20192;-56
2022/07/05 03:54:59;;;;;;;46.72;6.75;;;;;;;22.60;65.60;99478.22;5063823;28;20575;-56
2022/07/05 03:57:27;;;;;;;14.43;5.05;;;;;;;23.20;63.96;99481.41;5046387;28;20199;-55
2022/07/05 03:59:54;;;;;;;18.00;5.30;;;;;;;24.66;59.00;99487.59;5042510;28;20201;-56
2022/07/05 04:02:21;;;;;;;39.15;6.22;;;;;;;26.24;53.64;99497.97;5046336;28;20597;-56
2022/07/05 04:04:48;;;;;;;17.55;4.32;;;;;;;27.22;49.98;99489.44;5054102;28;20590;-56
2022/07/05 04:07:15;;;;;;;5.63;4.32;;;;;;;28.09;47.26;99497.56;5051749;28;20188;-56
2022/07/05 04:09:42;;;;;;;11.95;4.72;;;;;;;28.66;46.16;99492.59;5052151;28;20193;-56
2022/07/05 04:12:09;;;;;;;10.18;4.63;;;;;;;29.36;43.88;99492.31;5045944;28;20594;-56
2022/07/05 04:14:38;;;;;;;4.75;4.18;;;;;;;30.14;42.23;99480.16;5054858;28;20580;-56
2022/07/05 04:17:05;;;;;;;4.82;4.20;;;;;;;31.00;40.01;99480.25;5050337;28;20640;-56
2022/07/05 04:19:32;;;;;;;8.00;4.63;;;;;;;30.84;40.35;99482.16;5055834;28;20291;-56
2022/07/05 04:21:59;;;;;;;4.40;4.10;;;;;;;30.72;40.87;99488.91;5058374;28;20212;-56
2022/07/05 04:24:26;;;;;;;6.05;4.35;;;;;;;30.98;40.13;99492.16;5060622;28;20196;-56
2022/07/05 04:26:52;;;;;;;9.50;4.60;;;;;;;31.34;39.39;99492.47;5063478;28;20606;-57
2022/07/05 04:29:19;;;;;;;6.03;4.82;;;;;;;32.06;38.11;99492.91;5061586;28;20207;-56
2022/07/05 04:31:48;;;;;;;7.85;4.68;;;;;;;32.70;36.57;99494.13;5061925;28;20196;-56
2022/07/05 04:34:15;;;;;;;10.18;4.78;;;;;;;33.21;36.07;99486.06;5065737;28;20742;-56
2022/07/05 04:36:42;;;;;;;8.50;4.55;;;;;;;33.56;34.50;99481.69;5071595;28;20228;-54
2022/07/05 04:39:09;;;;;;;7.50;4.60;;;;;;;33.85;34.50;99484.28;5071960;28;20692;-55
2022/07/05 04:41:36;;;;;;;9.23;4.77;;;;;;;34.57;33.23;99492.03;5057597;28;20207;-55
2022/07/05 04:44:04;;;;;;;4.35;4.05;;;;;;;35.12;31.87;99487.53;5061443;28;20198;-57
2022/07/05 04:46:31;;;;;;;8.85;4.47;;;;;;;35.52;31.69;99479.56;5060070;28;20207;-54
2022/07/05 04:48:59;;;;;;;4.85;4.35;;;;;;;36.48;30.36;99493.47;5057679;28;20542;-54
2022/07/05 04:51:26;;;;;;;5.88;4.22;;;;;;;36.71;29.81;99493.84;5063095;28;20192;-55
2022/07/05 04:53:53;;;;;;;5.25;4.40;;;;;;;36.58;29.87;99493.84;5061886;28;20755;-55
2022/07/05 04:56:20;;;;;;;9.90;4.30;;;;;;;36.63;29.53;99497.59;5059131;28;20700;-55
2022/07/05 04:58:47;;;;;;;5.32;4.80;;;;;;;36.65;29.85;99503.63;5060513;28;20291;-55
2022/07/05 05:01:13;;;;;;;9.88;4.10;;;;;;;37.03;29.12;99486.63;5056801;28;20292;-54
2022/07/05 05:03:40;;;;;;;18.85;4.57;;;;;;;37.63;28.36;99498.00;5051999;28;20250;-55
2022/07/05 05:06:09;;;;;;;13.50;5.00;;;;;;;37.62;28.56;99497.16;5052112;28;20206;-55
2022/07/05 05:08:36;;;;;;;10.02;5.00;;;;;;;37.15;28.64;99506.56;5052163;28;20200;-56
2022/07/05 05:11:02;;;;;;;8.57;4.93;;;;;;;36.86;29.05;99501.72;5052102;28;20699;-55
2022/07/05 05:13:30;;;;;;;11.23;4.40;;;;;;;37.77;28.16;99508.53;5052071;28;20579;-55
2022/07/05 05:15:56;;;;;;;12.15;6.20;;;;;;;38.24;27.06;99519.84;5052063;28;20679;-54
2022/07/05 05:18:26;;;;;;;9.80;4.13;;;;;;;38.76;26.45;99526.59;5051856;28;20198;-56
2022/07/05 05:20:54;;;;;;;9.80;4.57;;;;;;;39.01;25.97;99523.00;5052170;28;20215;-55
2022/07/05 05:23:23;;;;;;;8.32;4.70;;;;;;;38.57;26.70;99519.53;5051847;28;20216;-55
2022/07/05 05:25:51;;;;;;;8.30;4.78;;;;;;;38.45;26.70;99527.53;5051861;28;20211;-55
2022/07/05 05:28:18;;;;;;;7.32;5.07;;;;;;;38.86;26.24;99526.06;5051755;28;20287;-56
2022/07/05 05:30:44;;;;;;;9.10;5.20;;;;;;;39.20;25.89;99532.75;5051424;28;20672;-58
2022/07/05 05:33:11;;;;;;;9.38;4.80;;;;;;;38.63;26.51;99524.03;5061208;28;20202;-54
2022/07/05 05:35:39;;;;;;;8.60;4.80;;;;;;;37.20;28.57;99525.72;5059867;28;20278;-56
2022/07/05 05:38:05;;;;;;;8.45;4.80;;;;;;;37.06;28.74;99527.63;5058609;28;20215;-55
2022/07/05 05:40:34;;;;;;;6.38;4.82;;;;;;;37.10;28.49;99525.34;5051655;28;20579;-55
2022/07/05 05:43:01;;;;;;;6.72;4.47;;;;;;;37.76;27.94;99530.41;5051373;28;20246;-55
2022/07/05 05:45:28;;;;;;;11.27;5.75;;;;;;;38.31;27.79;99522.47;5051408;28;20704;-55
2022/07/05 05:47:56;;;;;;;5.55;5.07;;;;;;;38.37;27.60;99527.00;5051637;28;20703;-56
2022/07/05 05:50:25;;;;;;;11.48;5.40;;;;;;;37.97;27.56;99521.91;5056492;28;20196;-55
2022/07/05 05:52:52;;;;;;;7.93;5.40;;;;;;;37.61;28.20;99529.84;5061528;28;20185;-57
2022/07/05 05:55:20;;;;;;;9.30;6.35;;;;;;;37.89;28.26;99535.75;5056317;28;20279;-55
2022/07/05 05:57:49;;;;;;;14.35;5.43;;;;;;;37.36;28.57;99527.91;5051313;28;20203;-55
2022/07/05 06:00:17;;;;;;;6.43;5.20;;;;;;;37.79;28.01;99532.69;5051110;28;20187;-54
2022/07/05 06:02:44;;;;;;;8.55;4.88;;;;;;;38.70;27.17;99537.53;5060420;28;20226;-55
2022/07/05 06:05:11;;;;;;;7.43;4.80;;;;;;;38.27;27.39;99543.75;5070794;28;20196;-55
2022/07/05 06:07:50;;;;;;;8.73;4.40;;;;;;;38.14;27.69;99528.47;5070946;28;20198;-56
2022/07/05 06:10:18;;;;;;;10.88;5.03;;;;;;;38.74;27.03;99525.16;5070793;28;20201;-56
2022/07/05 06:12:45;;;;;;;6.40;4.20;;;;;;;38.40;27.19;99523.81;5070850;28;20590;-56
2022/07/05 06:15:13;;;;;;;10.00;4.18;;;;;;;37.82;28.23;99518.69;5070868;28;20691;-55
2022/07/05 06:17:40;;;;;;;5.20;4.25;;;;;;;37.42;28.66;99513.53;5070844;28;20248;-55
2022/07/05 06:20:09;;;;;;;4.70;3.70;;;;;;;37.16;29.12;99504.72;5070806;28;20200;-56
2022/07/05 06:22:36;;;;;;;8.02;4.43;;;;;;;37.00;28.86;99504.16;5070591;28;20226;-56
2022/07/05 06:25:03;;;;;;;10.73;4.50;;;;;;;36.54;29.85;99504.28;5070674;28;20214;-55
2022/07/05 06:27:30;;;;;;;11.23;4.40;;;;;;;37.04;29.24;99493.72;5070589;28;20200;-56
2022/07/05 06:29:58;;;;;;;4.63;4.20;;;;;;;36.88;29.22;99507.75;5070899;28;20567;-55
2022/07/05 06:32:26;;;;;;;4.25;3.88;;;;;;;36.48;29.31;99502.41;5070250;28;20214;-56
2022/07/05 06:34:53;;;;;;;6.70;4.22;;;;;;;36.46;29.26;99501.78;5070789;28;20273;-55
2022/07/05 06:37:20;;;;;;;8.02;4.22;;;;;;;35.92;30.32;99485.81;5070423;28;20246;-57
2022/07/05 06:39:47;;;;;;;7.90;4.55;;;;;;;35.81;30.85;99492.69;5070286;28;20196;-58
2022/07/05 06:42:14;;;;;;;4.80;4.43;;;;;;;35.71;30.88;99486.84;5069450;28;20210;-58
2022/07/05 06:44:41;;;;;;;5.15;4.38;;;;;;;35.62;31.20;99490.78;5070285;28;20229;-58
2022/07/05 06:47:09;;;;;;;10.52;4.53;;;;;;;35.78;30.77;99484.19;5062442;28;20195;-58
2022/07/05 06:49:37;;;;;;;5.90;4.80;;;;;;;35.62;31.00;99477.28;5050345;28;20577;-58
2022/07/05 06:52:05;;;;;;;11.75;4.78;;;;;;;35.77;30.46;99482.53;5050161;28;20313;-59
2022/07/05 06:54:32;;;;;;;6.40;3.95;;;;;;;35.99;30.92;99484.81;5050243;28;20924;-58
2022/07/05 06:56:59;;;;;;;10.57;4.88;;;;;;;35.89;29.73;99481.66;5049937;28;20306;-58
2022/07/05 06:59:26;;;;;;;6.88;5.07;;;;;;;35.66;29.36;99479.38;5050084;28;20200;-59
2022/07/05 07:01:53;;;;;;;4.43;3.95;;;;;;;35.32;28.98;99481.41;5050775;28;20291;-56
2022/07/05 07:04:19;;;;;;;7.10;4.40;;;;;;;34.86;29.90;99473.97;5050479;28;20228;-56
2022/07/05 07:06:48;;;;;;;6.40;4.30;;;;;;;35.18;29.76;99470.53;5050031;28;20204;-58
2022/07/05 07:09:21;;;;;;;4.07;3.67;;;;;;;35.60;28.79;99465.84;5050212;28;20231;-58
2022/07/05 07:11:49;;;;;;;4.47;3.78;;;;;;;35.89;28.85;99461.94;5050117;28;20566;-57
2022/07/05 07:14:16;;;;;;;5.85;3.95;;;;;;;36.21;28.79;99463.81;5049599;28;20227;-57
2022/07/05 07:16:43;;;;;;;9.57;5.88;;;;;;;36.42;28.09;99468.13;5049702;28;20203;-58
2022/07/05 07:19:10;;;;;;;6.22;4.70;;;;;;;36.50;27.91;99462.47;5049375;28;20603;-58
2022/07/05 07:21:37;;;;;;;8.65;5.03;;;;;;;35.85;29.09;99469.63;5049635;28;20207;-58
2022/07/05 07:24:07;;;;;;;9.00;4.60;;;;;;;35.65;29.86;99458.81;5049464;28;20235;-57
2022/07/05 07:27:02;;;;;;;8.38;4.88;;;;;;;36.09;29.18;99451.13;5049668;28;20210;-58
2022/07/05 07:29:20;;;;;;;9.00;4.05;;;;;;;36.68;29.10;99453.69;5049776;28;20196;-58
2022/07/05 07:31:47;;;;;;;7.15;4.13;;;;;;;36.77;28.44;99454.31;5049481;28;20626;-58
2022/07/05 07:34:14;;;;;;;6.47;5.78;;;;;;;37.13;28.43;99454.53;5049292;28;20199;-56
2022/07/05 07:36:41;;;;;;;12.70;5.00;;;;;;;37.28;27.46;99459.66;5049352;28;20271;-57
2022/07/05 07:39:10;;;;;;;4.85;3.92;;;;;;;36.52;26.75;99463.09;5049323;28;20207;-56
2022/07/05 07:41:36;;;;;;;13.05;4.65;;;;;;;36.48;26.60;99458.31;5049399;28;20196;-56
2022/07/05 07:44:03;;;;;;;8.68;4.45;;;;;;;36.62;26.64;99468.06;5049314;28;20663;-56
2022/07/05 07:46:30;;;;;;;7.40;4.57;;;;;;;36.38;27.53;99467.72;5049119;28;20204;-57
2022/07/05 07:48:58;;;;;;;4.97;4.50;;;;;;;36.59;26.88;99466.59;5049379;28;20214;-57
2022/07/05 07:51:25;;;;;;;6.50;4.47;;;;;;;37.13;27.24;99470.78;5049442;28;20197;-56
2022/07/05 07:53:52;;;;;;;11.45;4.95;;;;;;;37.18;27.07;99468.28;5050722;28;20670;-56
2022/07/05 07:56:20;;;;;;;9.98;4.35;;;;;;;37.56;27.98;99470.94;5053197;28;20218;-57
2022/07/05 07:58:48;;;;;;;17.15;4.47;;;;;;;37.28;25.95;99462.38;5053317;28;20192;-57
2022/07/05 08:01:14;;;;;;;5.35;4.22;;;;;;;37.65;25.47;99469.66;5053198;28;20295;-57
2022/07/05 08:03:42;;;;;;;4.38;4.03;;;;;;;37.46;25.35;99477.91;5053311;28;20219;-57
2022/07/05 08:06:10;;;;;;;6.07;4.03;;;;;;;38.10;25.53;99477.63;5053266;28;20206;-57
2022/07/05 08:08:38;;;;;;;6.97;4.50;;;;;;;38.08;24.76;99480.56;5052870;28;20588;-57
2022/07/05 08:11:05;;;;;;;7.47;4.32;;;;;;;38.56;25.05;99482.59;5053554;28;20204;-58
2022/07/05 08:13:34;;;;;;;4.72;4.32;;;;;;;38.63;24.06;99483.34;5053168;28;20199;-57
2022/07/05 08:16:01;;;;;;;8.90;4.55;;;;;;;38.65;24.36;99481.22;5052878;28;20206;-57
2022/07/05 08:23:56;;;;;;;5.22;3.97;;;;;;;40.08;23.00;99481.28;5053046;28;20365;-56
2022/07/05 08:26:23;;;;;;;4.10;3.90;;;;;;;40.22;22.77;99481.88;5053103;28;20196;-55
2022/07/05 08:28:51;;;;;;;9.18;3.60;;;;;;;40.34;22.91;99479.16;5052870;28;20199;-55
2022/07/05 08:31:18;;;;;;;6.00;3.80;;;;;;;40.58;23.20;99481.63;5052792;28;20208;-55
2022/07/05 08:33:45;;;;;;;7.93;3.85;;;;;;;40.83;23.09;99478.63;5052808;28;20317;-54
2022/07/05 08:36:12;;;;;;;13.15;4.05;;;;;;;40.98;22.87;99476.19;5052578;28;20235;-54
2022/07/05 08:38:39;;;;;;;7.78;3.60;;;;;;;40.47;23.27;99441.66;5052493;28;20787;-53
2022/07/05 08:41:09;;;;;;;10.10;4.05;;;;;;;39.60;23.53;99462.44;5052569;28;20202;-55
2022/07/05 08:43:40;;;;;;;7.10;3.75;;;;;;;39.41;23.77;99461.66;5052605;28;20611;-54
2022/07/05 08:46:10;;;;;;;5.07;3.72;;;;;;;38.81;23.90;99461.63;5052466;28;20207;-54
2022/07/05 08:48:42;;;;;;;4.90;3.47;;;;;;;38.22;24.82;99454.16;5052427;28;20203;-54
2022/07/05 08:51:12;;;;;;;4.50;3.60;;;;;;;36.96;26.73;99454.22;5054208;28;20200;-53
2022/07/05 08:53:41;;;;;;;8.20;3.58;;;;;;;37.02;26.50;99447.91;5057718;28;20222;-53
2022/07/05 08:56:09;;;;;;;9.77;3.88;;;;;;;37.08;26.96;99436.25;5061712;28;20198;-53
2022/07/05 08:58:37;;;;;;;5.65;3.70;;;;;;;37.09;26.43;99418.13;5057454;28;20248;-55
2022/07/05 09:01:04;;;;;;;10.20;3.53;;;;;;;37.30;25.79;99441.34;5060911;28;20187;-54
2022/07/05 09:03:34;;;;;;;5.60;4.30;;;;;;;37.17;29.28;99434.13;5061686;28;20226;-55
2022/07/05 09:06:02;;;;;;;7.43;4.05;;;;;;;36.41;27.12;99434.03;5059859;28;20288;-54
2022/07/05 09:08:33;;;;;;;5.07;4.07;;;;;;;36.11;27.99;99427.44;5060391;28;20222;-54
2022/07/05 09:11:03;;;;;;;9.65;3.88;;;;;;;36.21;28.12;99425.09;5058185;28;20203;-54
2022/07/05 09:13:35;;;;;;;5.07;3.42;;;;;;;36.26;27.20;99423.44;5060071;28;20590;-54
2022/07/05 09:16:03;;;;;;;7.72;4.00;;;;;;;35.81;27.74;99418.94;5058488;28;20192;-54
2022/07/05 09:18:48;;;;;;;9.00;3.83;;;;;;;35.57;27.70;99420.34;5059921;28;20200;-53
2022/07/05 09:21:17;;;;;;;4.85;4.03;;;;;;;35.70;27.89;99424.94;5061385;28;20196;-54
2022/07/05 09:23:44;;;;;;;4.68;3.40;;;;;;;35.24;28.62;99413.03;5060423;28;20212;-54
2022/07/05 09:26:11;;;;;;;6.13;3.85;;;;;;;35.08;29.28;99399.94;5059396;28;20199;-55
2022/07/05 09:28:38;;;;;;;5.53;3.80;;;;;;;35.49;28.79;99410.59;5050802;28;20211;-54
2022/07/05 09:31:06;;;;;;;9.48;4.22;;;;;;;35.78;26.70;99403.97;5051921;28;20591;-55
2022/07/05 09:33:33;;;;;;;4.20;3.90;;;;;;;35.89;27.16;99408.72;5051766;28;20611;-55
2022/07/05 09:36:02;;;;;;;8.35;3.70;;;;;;;35.97;28.06;99413.09;5051862;28;20219;-55
2022/07/05 09:38:30;;;;;;;10.02;4.13;;;;;;;35.90;27.40;99404.16;5051557;28;20228;-55
2022/07/05 09:40:57;;;;;;;14.32;4.07;;;;;;;36.03;26.56;99404.97;5051440;28;20206;-54
2022/07/05 09:43:26;;;;;;;5.00;4.00;;;;;;;36.18;27.81;99407.44;5051615;28;20224;-55
2022/07/05 09:45:58;;;;;;;8.13;3.72;;;;;;;35.95;27.10;99402.50;5051532;28;20586;-55
2022/07/05 09:48:26;;;;;;;9.20;4.43;;;;;;;36.15;26.63;99401.63;5051537;28;20279;-55
2022/07/05 09:50:53;;;;;;;10.75;4.05;;;;;;;36.10;25.95;99399.56;5051389;28;20203;-56
2022/07/05 09:53:21;;;;;;;6.57;3.67;;;;;;;35.81;26.21;99395.44;5051151;28;20201;-54
2022/07/05 09:56:03;;;;;;;10.93;3.95;;;;;;;36.17;26.04;99399.53;5051258;28;20219;-54
2022/07/05 09:58:30;;;;;;;3.70;3.40;;;;;;;35.96;25.27;99379.84;5049878;28;20753;-55
2022/07/05 10:00:57;;;;;;;8.63;3.90;;;;;;;36.17;25.22;99383.31;5057291;28;20219;-55
2022/07/05 10:03:24;;;;;;;4.13;3.67;;;;;;;36.32;25.20;99389.34;5059939;28;20189;-57
2022/07/05 10:05:51;;;;;;;4.43;3.70;;;;;;;35.91;25.95;99373.41;5051026;28;20691;-55
2022/07/05 10:08:21;;;;;;;8.90;3.78;;;;;;;35.70;26.20;99376.31;5051091;28;20193;-54
2022/07/05 10:10:52;;;;;;;4.97;2.92;;;;;;;35.56;25.53;99378.19;5049780;28;20279;-56
2022/07/05 10:13:19;;;;;;;5.18;3.40;;;;;;;35.72;26.10;99375.06;5057872;28;20558;-54
2022/07/05 10:15:46;;;;;;;10.15;3.83;;;;;;;35.72;26.04;99375.06;5070756;28;20676;-58
2022/07/05 10:18:16;;;;;;;6.25;3.38;;;;;;;35.83;26.61;99377.16;5069683;28;20691;-57
2022/07/05 10:20:44;;;;;;;9.05;3.60;;;;;;;36.01;26.38;99358.41;5070227;28;20669;-58
2022/07/05 10:23:13;;;;;;;6.72;3.55;;;;;;;35.84;26.23;99367.19;5041737;28;20688;-55
2022/07/05 10:25:41;;;;;;;7.88;3.78;;;;;;;35.90;26.53;99367.16;5030314;28;20231;-55
2022/07/05 10:28:10;;;;;;;4.75;3.13;;;;;;;35.88;27.10;99366.56;5030560;28;20205;-55
2022/07/05 10:30:38;;;;;;;7.72;3.38;;;;;;;35.73;27.11;99363.22;5030492;28;20292;-55
2022/07/05 10:33:08;;;;;;;5.70;4.18;;;;;;;35.51;27.81;99356.41;5030526;28;20205;-55
2022/07/05 10:35:35;;;;;;;6.88;4.15;;;;;;;35.43;28.73;99353.94;5030519;28;20197;-57
2022/07/05 10:38:05;;;;;;;4.95;3.83;;;;;;;35.23;28.95;99349.31;5030332;28;20233;-58
2022/07/05 10:40:34;;;;;;;3.90;3.40;;;;;;;35.25;28.83;99341.88;5030507;28;20220;-58
2022/07/05 10:43:03;;;;;;;8.05;3.47;;;;;;;35.28;29.52;99340.63;5030463;28;20198;-58
2022/07/05 10:45:33;;;;;;;5.20;3.80;;;;;;;35.16;29.63;99342.25;5030090;28;20229;-58
2022/07/05 10:48:17;;;;;;;7.93;3.97;;;;;;;34.86;29.22;99339.13;5030178;28;20412;-58
2022/07/05 10:50:45;;;;;;;3.80;3.60;;;;;;;34.66;29.39;99332.78;5030452;28;20197;-58
2022/07/05 10:53:12;;;;;;;8.20;3.92;;;;;;;34.39;29.58;99334.59;5030180;28;20207;-58
2022/07/05 10:55:57;;;;;;;6.65;4.22;;;;;;;34.41;29.48;99329.84;5030063;28;20641;-57
2022/07/05 10:58:32;;;;;;;7.05;4.25;;;;;;;34.49;30.46;99325.09;5029899;28;20201;-57
2022/07/05 11:01:39;;;;;;;5.07;3.70;;;;;;;34.24;30.42;99322.06;5029992;28;20207;-57
2022/07/05 11:04:32;;;;;;;5.93;4.47;;;;;;;34.33;30.24;99320.03;5030048;28;20282;-56
2022/07/05 11:06:59;;;;;;;6.45;4.10;;;;;;;34.36;30.14;99319.66;5030270;28;20209;-57
2022/07/05 11:09:28;;;;;;;4.80;4.20;;;;;;;34.42;30.69;99304.56;5029993;28;20201;-57
2022/07/05 11:12:09;;;;;;;4.57;4.20;;;;;;;34.35;30.20;99314.47;5030268;28;20205;-57
2022/07/05 11:14:48;;;;;;;4.40;4.05;;;;;;;34.35;30.84;99311.75;5029770;28;20642;-56
2022/07/05 11:17:25;;;;;;;5.40;3.88;;;;;;;34.23;30.21;99308.78;5029977;28;20276;-58
2022/07/05 11:20:13;;;;;;;5.15;4.40;;;;;;;34.29;31.24;99302.63;5029831;28;20251;-55
2022/07/05 11:22:42;;;;;;;4.40;4.10;;;;;;;34.38;31.25;99295.19;5029770;28;20197;-56
2022/07/05 11:25:11;;;;;;;10.60;4.30;;;;;;;34.38;31.49;99290.63;5029486;28;20217;-55
2022/07/05 11:28:05;;;;;;;8.75;4.68;;;;;;;34.44;31.62;99279.03;5029707;28;20204;-55
2022/07/05 11:30:45;;;;;;;4.90;4.45;;;;;;;34.35;31.07;99300.97;5029686;28;20587;-55
2022/07/05 11:33:30;;;;;;;5.72;5.05;;;;;;;34.19;31.29;99286.00;5029528;28;20201;-55
2022/07/05 11:35:58;;;;;;;8.05;4.78;;;;;;;34.27;31.90;99282.31;5030012;28;20197;-55
2022/07/05 11:38:25;;;;;;;8.02;4.78;;;;;;;34.30;31.29;99274.66;5029242;28;20237;-53
2022/07/05 11:40:54;;;;;;;5.13;4.82;;;;;;;34.45;31.72;99279.88;5029740;28;20195;-55
2022/07/05 11:43:28;;;;;;;5.25;4.80;;;;;;;34.42;31.06;99275.75;5029336;28;20202;-57